createdAt,value
2019-04-23T00:00:29.421Z,0.00
2019-04-23T00:01:49.156Z,0.00
2019-04-23T00:02:29.134Z,0.00
2019-04-23T00:03:36.875Z,0.00
2019-04-23T00:04:28.669Z,0.00
2019-04-23T00:05:48.151Z,0.00
2019-04-23T00:06:32.272Z,0.00
2019-04-23T00:07:55.933Z,0.00
2019-04-23T00:08:43.370Z,0.00
2019-04-23T00:09:32.993Z,0.00
2019-04-23T00:10:53.332Z,0.00
2019-04-23T00:11:34.172Z,0.00
2019-04-23T00:13:39.005Z,0.00
2019-04-23T00:14:38.496Z,0.00
2019-04-23T00:15:33.484Z,0.00
2019-04-23T00:16:29.882Z,0.00
2019-04-23T00:17:40.277Z,0.00
2019-04-23T00:18:37.729Z,0.00
2019-04-23T00:19:32.943Z,0.00
2019-04-23T00:20:34.776Z,0.00
2019-04-23T00:21:38.860Z,0.00
2019-04-23T00:22:41.494Z,0.00
2019-04-23T00:23:40.871Z,0.00
2019-04-23T00:24:53.031Z,0.00
2019-04-23T00:26:39.790Z,0.00
2019-04-23T00:28:35.421Z,0.00
2019-04-23T00:29:44.710Z,0.00
2019-04-23T00:31:31.406Z,0.00
2019-04-23T00:32:37.952Z,0.00
2019-04-23T00:33:34.580Z,0.00
2019-04-23T00:34:34.377Z,0.00
2019-04-23T00:35:34.057Z,0.00
2019-04-23T00:39:34.562Z,0.00
2019-04-23T00:40:35.409Z,0.00
2019-04-23T00:41:36.699Z,0.00
2019-04-23T00:42:38.542Z,0.00
2019-04-23T00:43:41.017Z,0.00
2019-04-23T00:44:40.078Z,0.00
2019-04-23T00:45:39.833Z,0.00
2019-04-23T00:46:34.933Z,0.00
2019-04-23T00:47:38.420Z,0.00
2019-04-23T00:48:36.495Z,0.00
2019-04-23T00:49:37.111Z,0.00
2019-04-23T00:50:38.463Z,0.00
2019-04-23T00:51:36.851Z,0.00
2019-04-23T00:52:46.241Z,0.00
2019-04-23T00:53:46.723Z,0.00
2019-04-23T00:54:34.254Z,0.00
2019-04-23T00:55:29.906Z,0.00
2019-04-23T00:57:35.461Z,0.00
2019-04-23T00:58:36.598Z,0.00
2019-04-23T00:59:42.771Z,0.00
2019-04-23T01:02:37.450Z,0.00
2019-04-23T01:03:25.633Z,0.00
2019-04-23T01:04:31.693Z,0.00
2019-04-23T01:05:31.197Z,0.00
2019-04-23T01:06:29.173Z,0.00
2019-04-23T01:07:33.388Z,0.00
2019-04-23T01:08:33.239Z,0.00
2019-04-23T01:09:44.130Z,0.00
2019-04-23T01:10:34.925Z,0.00
2019-04-23T01:11:34.203Z,0.00
2019-04-23T01:12:37.797Z,0.00
2019-04-23T01:13:40.103Z,0.00
2019-04-23T01:14:34.494Z,0.00
2019-04-23T01:15:53.722Z,0.00
2019-04-23T01:16:33.455Z,0.00
2019-04-23T01:17:39.539Z,0.00
2019-04-23T01:19:41.803Z,0.00
2019-04-23T01:20:37.091Z,0.00
2019-04-23T01:21:11.964Z,0.00
2019-04-23T01:22:12.581Z,0.00
2019-04-23T01:23:11.992Z,0.00
2019-04-23T01:24:18.105Z,0.00
2019-04-23T01:25:22.201Z,0.00
2019-04-23T01:26:33.060Z,0.00
2019-04-23T01:28:45.073Z,0.00
2019-04-23T01:29:42.521Z,0.00
2019-04-23T01:30:34.115Z,0.00
2019-04-23T01:31:43.301Z,0.00
2019-04-23T01:33:47.023Z,0.00
2019-04-23T01:34:42.353Z,0.00
2019-04-23T01:35:36.454Z,0.00
2019-04-23T01:36:54.633Z,0.00
2019-04-23T01:37:30.497Z,0.00
2019-04-23T01:38:41.744Z,0.00
2019-04-23T01:39:40.143Z,0.00
2019-04-23T01:40:39.385Z,0.00
2019-04-23T01:41:41.494Z,0.00
2019-04-23T01:42:40.596Z,0.00
2019-04-23T01:43:44.061Z,0.00
2019-04-23T01:44:42.501Z,0.00
2019-04-23T01:45:29.598Z,0.00
2019-04-23T01:46:46.207Z,0.00
2019-04-23T01:47:38.830Z,0.00
2019-04-23T01:49:47.472Z,0.00
2019-04-23T01:50:47.099Z,0.00
2019-04-23T01:51:39.934Z,0.00
2019-04-23T01:52:45.572Z,0.00
2019-04-23T01:53:38.960Z,0.00
2019-04-23T01:54:42.335Z,0.00
2019-04-23T01:55:52.712Z,0.00
2019-04-23T01:56:33.493Z,0.00
2019-04-23T01:57:37.944Z,0.00
2019-04-23T01:58:53.639Z,0.00
2019-04-23T01:59:39.259Z,0.00
2019-04-23T02:01:38.721Z,0.00
2019-04-23T02:02:48.091Z,0.00
2019-04-23T02:03:56.166Z,0.00
2019-04-23T02:04:36.517Z,0.00
2019-04-23T02:06:38.921Z,0.00
2019-04-23T02:07:45.929Z,0.00
2019-04-23T02:08:40.478Z,0.00
2019-04-23T02:09:42.281Z,0.00
2019-04-23T02:10:44.444Z,0.00
2019-04-23T02:11:37.370Z,0.00
2019-04-23T02:12:42.051Z,0.00
2019-04-23T02:13:38.733Z,0.00
2019-04-23T02:14:34.804Z,0.00
2019-04-23T02:15:37.882Z,0.00
2019-04-23T02:16:40.799Z,0.00
2019-04-23T02:17:38.439Z,0.00
2019-04-23T02:18:37.419Z,0.00
2019-04-23T02:19:38.484Z,0.00
2019-04-23T02:21:38.195Z,0.00
2019-04-23T02:22:54.223Z,0.00
2019-04-23T02:23:36.922Z,0.00
2019-04-23T02:24:43.012Z,0.00
2019-04-23T02:26:39.862Z,0.00
2019-04-23T02:27:36.406Z,0.00
2019-04-23T02:31:18.591Z,0.00
2019-04-23T02:31:52.943Z,0.00
2019-04-23T02:32:46.236Z,0.00
2019-04-23T02:33:49.960Z,0.00
2019-04-23T02:34:52.254Z,0.00
2019-04-23T02:36:47.469Z,0.00
2019-04-23T02:37:58.284Z,0.00
2019-04-23T02:38:54.521Z,0.00
2019-04-23T02:39:53.633Z,0.00
2019-04-23T02:41:02.272Z,0.00
2019-04-23T02:42:12.948Z,0.00
2019-04-23T02:43:00.915Z,0.00
2019-04-23T02:43:39.224Z,0.00
2019-04-23T02:44:38.626Z,0.00
2019-04-23T02:46:02.506Z,0.00
2019-04-23T02:46:44.001Z,0.00
2019-04-23T02:48:45.956Z,0.00
2019-04-23T02:49:54.941Z,0.00
2019-04-23T02:51:42.446Z,0.00
2019-04-23T02:54:00.134Z,0.00
2019-04-23T02:54:57.100Z,0.00
2019-04-23T02:56:04.879Z,0.00
2019-04-23T02:57:47.663Z,0.00
2019-04-23T02:58:54.505Z,0.00
2019-04-23T02:59:56.037Z,0.00
2019-04-23T03:00:55.675Z,0.00
2019-04-23T03:02:47.824Z,0.00
2019-04-23T03:03:53.301Z,0.00
2019-04-23T03:04:55.521Z,0.00
2019-04-23T03:05:45.521Z,0.00
2019-04-23T03:06:45.955Z,0.00
2019-04-23T03:07:45.102Z,0.00
2019-04-23T03:08:49.270Z,0.00
2019-04-23T03:09:45.838Z,0.00
2019-04-23T03:16:56.326Z,0.00
2019-04-23T03:17:47.374Z,0.00
2019-04-23T03:18:48.801Z,0.00
2019-04-23T03:23:01.134Z,0.00
2019-04-23T03:23:49.976Z,0.00
2019-04-23T03:25:35.651Z,0.00
2019-04-23T03:27:05.289Z,0.00
2019-04-23T03:29:04.261Z,0.00
2019-04-23T03:29:51.231Z,0.00
2019-04-23T03:32:34.146Z,0.00
2019-04-23T03:32:45.711Z,0.00
2019-04-23T03:37:08.687Z,0.00
2019-04-23T03:39:56.590Z,0.00
2019-04-23T03:40:46.487Z,0.00
2019-04-23T03:42:47.583Z,0.00
2019-04-23T03:43:41.160Z,0.00
2019-04-23T03:44:47.765Z,0.00
2019-04-23T03:46:36.548Z,0.00
2019-04-23T03:47:41.324Z,0.00
2019-04-23T03:49:48.601Z,5.63
2019-04-23T03:52:02.533Z,5.63
2019-04-23T03:52:42.310Z,5.63
2019-04-23T03:53:58.534Z,5.63
2019-04-23T03:54:49.227Z,5.63
2019-04-23T03:55:52.063Z,11.25
2019-04-23T03:56:52.588Z,11.25
2019-04-23T03:57:43.395Z,11.25
2019-04-23T03:58:44.857Z,11.25
2019-04-23T03:59:44.803Z,16.88
2019-04-23T04:00:47.374Z,16.88
2019-04-23T04:01:48.720Z,16.88
2019-04-23T04:04:38.267Z,22.50
2019-04-23T04:05:45.859Z,28.13
2019-04-23T04:06:50.219Z,28.13
2019-04-23T04:08:05.171Z,33.75
2019-04-23T04:08:47.395Z,33.75
2019-04-23T04:09:49.918Z,39.38
2019-04-23T04:11:27.397Z,45.00
2019-04-23T04:12:41.478Z,45.00
2019-04-23T04:14:44.807Z,50.63
2019-04-23T04:15:55.518Z,56.25
2019-04-23T04:16:49.650Z,61.88
2019-04-23T04:17:55.634Z,61.88
2019-04-23T04:18:44.171Z,67.50
2019-04-23T04:21:52.578Z,78.75
2019-04-23T04:23:04.264Z,78.75
2019-04-23T04:24:40.121Z,90.00
2019-04-23T04:25:51.629Z,95.63
2019-04-23T04:26:51.548Z,95.63
2019-04-23T04:27:56.061Z,101.25
2019-04-23T04:28:46.513Z,106.88
2019-04-23T04:30:43.437Z,118.13
2019-04-23T04:31:48.240Z,118.13
2019-04-23T04:32:53.931Z,123.75
2019-04-23T04:35:09.031Z,129.38
2019-04-23T04:35:37.797Z,135.00
2019-04-23T04:36:58.455Z,135.00
2019-04-23T04:38:06.174Z,146.25
2019-04-23T04:40:05.175Z,151.88
2019-04-23T04:40:42.184Z,151.88
2019-04-23T04:41:52.583Z,157.50
2019-04-23T04:42:49.031Z,157.50
2019-04-23T04:44:02.468Z,163.13
2019-04-23T04:45:02.014Z,163.13
2019-04-23T04:45:51.983Z,168.75
2019-04-23T04:46:47.654Z,174.38
2019-04-23T04:49:51.709Z,185.63
2019-04-23T04:52:47.137Z,202.50
2019-04-23T04:54:30.828Z,202.50
2019-04-23T04:55:52.469Z,208.13
2019-04-23T04:56:43.113Z,213.75
2019-04-23T04:58:47.496Z,213.75
2019-04-23T04:59:55.440Z,219.38
2019-04-23T05:01:50.961Z,236.25
2019-04-23T05:03:03.712Z,258.75
2019-04-23T05:03:58.244Z,275.63
2019-04-23T05:06:56.915Z,292.50
2019-04-23T05:08:48.049Z,303.75
2019-04-23T05:11:52.442Z,326.25
2019-04-23T05:12:36.061Z,331.88
2019-04-23T05:13:47.652Z,343.13
2019-04-23T05:14:52.704Z,354.38
2019-04-23T05:16:43.199Z,365.63
2019-04-23T05:21:01.867Z,393.75
2019-04-23T05:21:46.785Z,399.38
2019-04-23T05:22:51.063Z,410.63
2019-04-23T05:25:38.102Z,438.75
2019-04-23T05:27:46.325Z,450.00
2019-04-23T05:28:38.837Z,461.25
2019-04-23T05:29:37.705Z,466.88
2019-04-23T05:31:01.294Z,472.50
2019-04-23T05:31:33.071Z,478.13
2019-04-23T05:32:41.875Z,483.75
2019-04-23T05:33:43.442Z,489.38
2019-04-23T05:34:55.490Z,506.25
2019-04-23T05:36:04.792Z,506.25
2019-04-23T05:36:41.670Z,506.25
2019-04-23T05:37:56.902Z,511.88
2019-04-23T05:38:52.677Z,511.88
2019-04-23T05:42:43.055Z,556.88
2019-04-23T05:43:40.840Z,568.13
2019-04-23T05:44:41.404Z,568.13
2019-04-23T05:46:42.818Z,573.75
2019-04-23T05:47:33.383Z,579.38
2019-04-23T05:48:37.379Z,585.00
2019-04-23T05:49:39.485Z,585.00
2019-04-23T05:50:53.915Z,585.00
2019-04-23T05:51:49.162Z,585.00
2019-04-23T05:53:40.825Z,618.75
2019-04-23T05:54:46.210Z,618.75
2019-04-23T05:55:42.698Z,630.00
2019-04-23T05:56:38.571Z,641.25
2019-04-23T05:57:38.537Z,641.25
2019-04-23T05:58:46.996Z,630.00
2019-04-23T05:59:37.550Z,641.25
2019-04-23T06:02:41.958Z,646.88
2019-04-23T06:03:39.981Z,641.25
2019-04-23T06:04:38.859Z,652.50
2019-04-23T06:05:40.149Z,675.00
2019-04-23T06:06:47.155Z,680.63
2019-04-23T06:08:43.967Z,691.88
2019-04-23T06:09:39.359Z,686.25
2019-04-23T06:10:44.305Z,686.25
2019-04-23T06:12:36.904Z,708.75
2019-04-23T06:13:44.581Z,731.25
2019-04-23T06:14:38.929Z,742.50
2019-04-23T06:15:41.658Z,736.88
2019-04-23T06:16:47.254Z,748.13
2019-04-23T06:17:44.485Z,776.25
2019-04-23T06:18:38.103Z,793.13
2019-04-23T06:19:36.708Z,815.63
2019-04-23T06:20:45.405Z,810.00
2019-04-23T06:21:44.365Z,810.00
2019-04-23T06:23:48.070Z,843.75
2019-04-23T06:24:48.831Z,849.38
2019-04-23T06:25:50.766Z,860.63
2019-04-23T06:26:47.220Z,866.25
2019-04-23T06:27:39.740Z,888.75
2019-04-23T06:28:33.372Z,961.88
2019-04-23T06:30:52.255Z,956.25
2019-04-23T06:31:43.554Z,1018.13
2019-04-23T06:32:38.001Z,1040.63
2019-04-23T06:33:41.802Z,1147.50
2019-04-23T06:34:39.731Z,1215.00
2019-04-23T06:35:36.290Z,1198.13
2019-04-23T06:36:38.482Z,1282.50
2019-04-23T06:38:14.381Z,1361.25
2019-04-23T06:40:41.893Z,1220.63
2019-04-23T06:41:37.551Z,1254.38
2019-04-23T06:42:34.598Z,1372.50
2019-04-23T06:43:47.097Z,1501.88
2019-04-23T06:44:37.830Z,1366.88
2019-04-23T06:46:43.497Z,1383.75
2019-04-23T06:47:36.162Z,1468.13
2019-04-23T06:48:40.792Z,1569.38
2019-04-23T06:49:44.122Z,1496.25
2019-04-23T06:50:41.507Z,1417.50
2019-04-23T06:51:46.417Z,1400.63
2019-04-23T06:52:43.811Z,1355.63
2019-04-23T06:53:38.528Z,1372.50
2019-04-23T06:54:42.565Z,1451.25
2019-04-23T06:56:44.743Z,1383.75
2019-04-23T06:57:36.747Z,1350.00
2019-04-23T06:58:37.359Z,1338.75
2019-04-23T06:59:38.495Z,1327.50
2019-04-23T07:00:46.603Z,1338.75
2019-04-23T07:01:50.408Z,1378.13
2019-04-23T07:02:37.645Z,1541.25
2019-04-23T07:04:43.485Z,1642.50
2019-04-23T07:05:42.732Z,1586.25
2019-04-23T07:06:38.353Z,1518.75
2019-04-23T07:09:03.201Z,1507.50
2019-04-23T07:09:37.312Z,1507.50
2019-04-23T07:10:40.272Z,1546.88
2019-04-23T07:13:46.532Z,1777.50
2019-04-23T07:14:44.160Z,1878.75
2019-04-23T07:17:34.894Z,1912.50
2019-04-23T07:18:38.000Z,1901.25
2019-04-23T07:20:40.087Z,1732.50
2019-04-23T07:21:39.343Z,1755.00
2019-04-23T07:22:35.965Z,1642.50
2019-04-23T07:23:44.770Z,1670.63
2019-04-23T07:24:39.809Z,1783.13
2019-04-23T07:25:41.791Z,1743.75
2019-04-23T07:27:30.098Z,1805.63
2019-04-23T07:28:47.998Z,1816.88
2019-04-23T07:29:52.780Z,1923.75
2019-04-23T07:30:41.536Z,2109.38
2019-04-23T07:31:46.098Z,2154.38
2019-04-23T07:32:38.923Z,2328.75
2019-04-23T07:33:44.704Z,2430.00
2019-04-23T07:34:39.776Z,2795.63
2019-04-23T07:35:38.005Z,3071.25
2019-04-23T07:37:40.314Z,3352.50
2019-04-23T07:38:48.171Z,3386.25
2019-04-23T07:40:40.568Z,3493.13
2019-04-23T07:42:50.077Z,3448.13
2019-04-23T07:43:42.265Z,3386.25
2019-04-23T07:44:43.353Z,3307.50
2019-04-23T07:45:45.114Z,3481.88
2019-04-23T07:46:40.710Z,3521.25
2019-04-23T07:47:33.819Z,3566.25
2019-04-23T07:48:27.630Z,3504.38
2019-04-23T07:49:43.303Z,3515.63
2019-04-23T07:51:37.383Z,3504.38
2019-04-23T07:52:41.003Z,3425.63
2019-04-23T07:53:41.204Z,3324.38
2019-04-23T07:56:47.692Z,3622.50
2019-04-23T07:57:40.121Z,3380.63
2019-04-23T07:58:33.219Z,3217.50
2019-04-23T07:59:43.744Z,2953.13
2019-04-23T08:00:47.044Z,3133.13
2019-04-23T08:01:34.433Z,3521.25
2019-04-23T08:02:33.551Z,3645.00
2019-04-23T08:03:39.309Z,3330.00
2019-04-23T08:04:43.104Z,3279.38
2019-04-23T08:05:49.079Z,3189.38
2019-04-23T08:06:40.502Z,3285.00
2019-04-23T08:07:45.694Z,3217.50
2019-04-23T08:08:39.656Z,3105.00
2019-04-23T08:09:43.354Z,3318.75
2019-04-23T08:10:55.435Z,3200.63
2019-04-23T08:11:39.944Z,3408.75
2019-04-23T08:12:43.808Z,3498.75
2019-04-23T08:14:44.769Z,3436.88
2019-04-23T08:15:42.935Z,3616.88
2019-04-23T08:16:38.305Z,3273.75
2019-04-23T08:17:34.676Z,3240.00
2019-04-23T08:18:45.156Z,3526.88
2019-04-23T08:19:51.198Z,3459.38
2019-04-23T08:20:42.545Z,3386.25
2019-04-23T08:21:39.782Z,3487.50
2019-04-23T08:22:39.403Z,3313.13
2019-04-23T08:23:42.789Z,3200.63
2019-04-23T08:24:45.420Z,3420.00
2019-04-23T08:25:45.799Z,3667.50
2019-04-23T08:26:44.721Z,3420.00
2019-04-23T08:27:34.827Z,3273.75
2019-04-23T08:28:52.724Z,3386.25
2019-04-23T08:29:30.377Z,3521.25
2019-04-23T08:30:40.356Z,3667.50
2019-04-23T08:31:43.821Z,3301.88
2019-04-23T08:32:27.994Z,3031.88
2019-04-23T08:33:40.132Z,3504.38
2019-04-23T08:35:43.296Z,3538.13
2019-04-23T08:36:42.364Z,3448.13
2019-04-23T08:38:44.921Z,3605.63
2019-04-23T08:39:38.619Z,3515.63
2019-04-23T08:40:42.836Z,3594.38
2019-04-23T08:41:42.241Z,3476.25
2019-04-23T08:42:46.892Z,3442.50
2019-04-23T08:43:57.438Z,3594.38
2019-04-23T08:46:50.995Z,3526.88
2019-04-23T08:47:59.124Z,3684.38
2019-04-23T08:48:41.398Z,3740.63
2019-04-23T08:49:43.918Z,3639.38
2019-04-23T08:50:43.040Z,3538.13
2019-04-23T08:52:38.313Z,3718.13
2019-04-23T08:55:44.279Z,3555.00
2019-04-23T08:56:41.494Z,3841.88
2019-04-23T08:57:39.283Z,4263.75
2019-04-23T08:58:41.524Z,4168.13
2019-04-23T08:59:43.917Z,3436.88
2019-04-23T09:00:45.556Z,3391.88
2019-04-23T09:01:48.068Z,3538.13
2019-04-23T09:03:36.176Z,3695.63
2019-04-23T09:05:45.107Z,3684.38
2019-04-23T09:06:37.004Z,3825.00
2019-04-23T09:07:38.984Z,3616.88
2019-04-23T09:08:37.478Z,3600.00
2019-04-23T09:09:45.451Z,3577.50
2019-04-23T09:10:46.227Z,3532.50
2019-04-23T09:13:54.718Z,3526.88
2019-04-23T09:14:42.213Z,3633.75
2019-04-23T09:16:46.894Z,3487.50
2019-04-23T09:17:42.537Z,3414.38
2019-04-23T09:18:37.191Z,3386.25
2019-04-23T09:19:53.136Z,3420.00
2019-04-23T09:20:30.540Z,3555.00
2019-04-23T09:21:40.516Z,3774.38
2019-04-23T09:22:38.619Z,3920.63
2019-04-23T09:23:45.136Z,3723.75
2019-04-23T09:24:43.998Z,3566.25
2019-04-23T09:25:40.698Z,3853.13
2019-04-23T09:26:48.756Z,3903.75
2019-04-23T09:27:53.100Z,3954.38
2019-04-23T09:29:45.681Z,3746.25
2019-04-23T09:30:42.805Z,3825.00
2019-04-23T09:32:00.723Z,3757.50
2019-04-23T09:34:51.175Z,3735.00
2019-04-23T09:35:37.443Z,3853.13
2019-04-23T09:36:41.514Z,3830.63
2019-04-23T09:37:49.204Z,3915.00
2019-04-23T09:38:39.628Z,4106.25
2019-04-23T09:39:46.896Z,3870.00
2019-04-23T09:41:51.556Z,3903.75
2019-04-23T09:43:43.343Z,3836.25
2019-04-23T09:44:56.588Z,3825.00
2019-04-23T09:45:42.376Z,3915.00
2019-04-23T09:46:36.495Z,3864.38
2019-04-23T09:47:48.983Z,3870.00
2019-04-23T09:48:48.518Z,3600.00
2019-04-23T09:49:44.238Z,3594.38
2019-04-23T09:50:45.809Z,3791.25
2019-04-23T09:52:52.998Z,3774.38
2019-04-23T09:53:57.801Z,3633.75
2019-04-23T09:55:45.471Z,3926.25
2019-04-23T09:56:44.341Z,3892.50
2019-04-23T09:57:44.698Z,3780.00
2019-04-23T09:58:34.584Z,3926.25
2019-04-23T09:59:43.201Z,4224.38
2019-04-23T10:01:30.206Z,3526.88
2019-04-23T10:02:31.026Z,3420.00
2019-04-23T10:03:26.847Z,3538.13
2019-04-23T10:04:28.168Z,3678.75
2019-04-23T10:05:26.226Z,3836.25
2019-04-23T10:06:20.829Z,3785.63
2019-04-23T10:07:27.127Z,3718.13
2019-04-23T10:08:21.168Z,3847.50
2019-04-23T10:09:14.583Z,3858.75
2019-04-23T10:10:14.329Z,4151.25
2019-04-23T10:11:13.850Z,4303.13
2019-04-23T10:12:13.158Z,4123.13
2019-04-23T10:13:13.712Z,3875.63
2019-04-23T10:14:14.489Z,3684.38
2019-04-23T10:15:21.605Z,3628.13
2019-04-23T10:16:17.024Z,3628.13
2019-04-23T10:17:13.953Z,3768.75
2019-04-23T10:18:14.096Z,3926.25
2019-04-23T10:19:13.015Z,4027.50
2019-04-23T10:20:13.039Z,3999.38
2019-04-23T10:21:13.153Z,4072.50
2019-04-23T10:22:13.342Z,4095.00
2019-04-23T10:23:14.225Z,3971.25
2019-04-23T10:24:13.071Z,3813.75
2019-04-23T10:25:13.083Z,3785.63
2019-04-23T10:26:14.240Z,3712.50
2019-04-23T10:27:14.730Z,3701.25
2019-04-23T10:28:14.775Z,3566.25
2019-04-23T10:29:14.041Z,3667.50
2019-04-23T10:30:14.481Z,3864.38
2019-04-23T10:31:14.510Z,3931.88
2019-04-23T10:32:13.613Z,3830.63
2019-04-23T10:33:13.842Z,3729.38
2019-04-23T10:34:14.718Z,3583.13
2019-04-23T10:35:22.127Z,3436.88
2019-04-23T10:36:17.259Z,3476.25
2019-04-23T10:37:13.603Z,3594.38
2019-04-23T10:38:16.617Z,3920.63
2019-04-23T10:39:20.763Z,4044.38
2019-04-23T10:40:19.424Z,3948.75
2019-04-23T10:41:14.089Z,4010.63
2019-04-23T10:42:14.285Z,4061.25
2019-04-23T10:43:13.315Z,3965.63
2019-04-23T10:44:13.303Z,3875.63
2019-04-23T10:45:27.286Z,3937.50
2019-04-23T10:46:32.594Z,4145.63
2019-04-23T10:47:40.440Z,3915.00
2019-04-23T10:49:04.546Z,3965.63
2019-04-23T10:51:49.428Z,4269.38
2019-04-23T10:52:37.649Z,3999.38
2019-04-23T10:54:03.466Z,3937.50
2019-04-23T10:54:40.905Z,3870.00
2019-04-23T10:55:52.601Z,3920.63
2019-04-23T10:57:36.372Z,2407.50
2019-04-23T10:58:40.609Z,4038.75
2019-04-23T11:00:46.099Z,1743.75
2019-04-23T11:01:44.994Z,2103.75
2019-04-23T11:03:58.857Z,2227.50
2019-04-23T11:05:00.455Z,2171.25
2019-04-23T11:05:50.337Z,2503.13
2019-04-23T11:06:47.203Z,2182.50
2019-04-23T11:07:47.523Z,2160.00
2019-04-23T11:08:55.446Z,2233.13
2019-04-23T11:09:50.116Z,2064.38
2019-04-23T11:10:44.573Z,3673.13
2019-04-23T11:11:48.344Z,4477.50
2019-04-23T11:15:09.239Z,4336.88
2019-04-23T11:18:51.854Z,1929.38
2019-04-23T11:19:51.587Z,2328.75
2019-04-23T11:21:43.062Z,2711.25
2019-04-23T11:22:57.410Z,2283.75
2019-04-23T11:23:43.044Z,2323.13
2019-04-23T11:24:50.338Z,1923.75
2019-04-23T11:25:42.836Z,4213.13
2019-04-23T11:26:42.478Z,4207.50
2019-04-23T11:27:43.985Z,4190.63
2019-04-23T11:28:38.412Z,4224.38
2019-04-23T11:29:44.379Z,4291.88
2019-04-23T11:31:41.335Z,4168.13
2019-04-23T11:33:46.081Z,4033.13
2019-04-23T11:38:56.099Z,3706.88
2019-04-23T11:39:45.078Z,3740.63
2019-04-23T11:40:37.199Z,3521.25
2019-04-23T11:42:47.783Z,3701.25
2019-04-23T11:43:37.787Z,3616.88
2019-04-23T11:44:41.716Z,3858.75
2019-04-23T11:45:49.334Z,4089.38
2019-04-23T11:48:14.294Z,4128.75
2019-04-23T11:55:44.855Z,2548.13
2019-04-23T11:57:52.480Z,3408.75
2019-04-23T11:58:42.868Z,2030.63
2019-04-23T12:00:57.202Z,3172.50
2019-04-23T12:02:43.365Z,4865.63
2019-04-23T12:03:56.809Z,2548.13
2019-04-23T12:04:48.037Z,4443.75
2019-04-23T12:05:52.362Z,4410.00
2019-04-23T12:06:39.012Z,4455.00
2019-04-23T12:07:57.685Z,4224.38
2019-04-23T12:08:43.288Z,4207.50
2019-04-23T12:09:46.489Z,4438.13
2019-04-23T12:10:55.302Z,4286.25
2019-04-23T12:11:53.452Z,4207.50
2019-04-23T12:12:42.944Z,4320.00
2019-04-23T12:13:51.486Z,4297.50
2019-04-23T12:14:53.694Z,4207.50
2019-04-23T12:16:54.041Z,3931.88
2019-04-23T12:17:42.286Z,3819.38
2019-04-23T12:19:01.455Z,3870.00
2019-04-23T12:20:41.198Z,4156.88
2019-04-23T12:21:43.728Z,4106.25
2019-04-23T12:22:51.292Z,3875.63
2019-04-23T12:23:49.871Z,2559.38
2019-04-23T12:25:47.449Z,3690.00
2019-04-23T12:26:55.865Z,3943.13
2019-04-23T12:27:33.174Z,4128.75
2019-04-23T12:28:44.135Z,3875.63
2019-04-23T12:30:44.942Z,2964.38
2019-04-23T12:31:51.031Z,2986.88
2019-04-23T12:32:47.961Z,2373.75
2019-04-23T12:33:55.008Z,3532.50
2019-04-23T12:34:55.638Z,3127.50
2019-04-23T12:35:52.001Z,2480.63
2019-04-23T12:36:42.620Z,2379.38
2019-04-23T12:37:39.326Z,2289.38
2019-04-23T12:38:40.988Z,2750.63
2019-04-23T12:39:41.964Z,2767.50
2019-04-23T12:40:40.442Z,3695.63
2019-04-23T12:41:45.254Z,3403.13
2019-04-23T12:43:40.478Z,2626.88
2019-04-23T12:44:50.436Z,2182.50
2019-04-23T12:45:38.766Z,2126.25
2019-04-23T12:46:45.955Z,2598.75
2019-04-23T12:47:49.948Z,2548.13
2019-04-23T12:48:50.128Z,3031.88
2019-04-23T12:50:05.032Z,2491.88
2019-04-23T12:51:52.190Z,2469.38
2019-04-23T12:52:46.899Z,3093.75
2019-04-23T12:55:05.285Z,3571.88
2019-04-23T12:55:47.368Z,3628.13
2019-04-23T12:57:46.746Z,3476.25
2019-04-23T12:58:32.250Z,3847.50
2019-04-23T12:59:43.837Z,4044.38
2019-04-23T13:01:05.696Z,3566.25
2019-04-23T13:01:49.686Z,3903.75
2019-04-23T13:02:46.483Z,3965.63
2019-04-23T13:03:40.589Z,3875.63
2019-04-23T13:04:49.052Z,1946.25
2019-04-23T13:05:32.736Z,1625.63
2019-04-23T13:06:44.077Z,1563.75
2019-04-23T13:07:43.924Z,1479.38
2019-04-23T13:08:46.122Z,1513.13
2019-04-23T13:09:45.781Z,1704.38
2019-04-23T13:10:40.016Z,1923.75
2019-04-23T13:11:40.858Z,1783.13
2019-04-23T13:13:48.503Z,1636.88
2019-04-23T13:14:49.085Z,1575.00
2019-04-23T13:15:40.669Z,1603.13
2019-04-23T13:16:53.906Z,1715.63
2019-04-23T13:18:17.410Z,1788.75
2019-04-23T13:18:46.709Z,1895.63
2019-04-23T13:19:51.858Z,3301.88
2019-04-23T13:21:58.650Z,3706.88
2019-04-23T13:23:01.865Z,3740.63
2019-04-23T13:23:44.220Z,3718.13
2019-04-23T13:24:41.920Z,3661.88
2019-04-23T13:25:49.653Z,3380.63
2019-04-23T13:26:36.440Z,1788.75
2019-04-23T13:27:46.570Z,1541.25
2019-04-23T13:28:45.645Z,1524.38
2019-04-23T13:31:41.384Z,1738.13
2019-04-23T13:32:46.377Z,1850.63
2019-04-23T13:33:58.711Z,1856.25
2019-04-23T13:34:48.446Z,2604.38
2019-04-23T13:36:45.059Z,3172.50
2019-04-23T13:38:41.843Z,3116.25
2019-04-23T13:39:48.764Z,3133.13
2019-04-23T13:41:01.218Z,3054.38
2019-04-23T13:41:40.552Z,3031.88
2019-04-23T13:42:49.890Z,3099.38
2019-04-23T13:44:51.973Z,2531.25
2019-04-23T13:45:59.995Z,2773.13
2019-04-23T13:46:41.022Z,3093.75
2019-04-23T13:48:40.137Z,2801.25
2019-04-23T13:49:51.170Z,2683.13
2019-04-23T13:50:59.989Z,2801.25
2019-04-23T13:51:39.476Z,2525.63
2019-04-23T13:53:45.022Z,2525.63
2019-04-23T13:55:42.912Z,1693.13
2019-04-23T13:57:12.748Z,1389.38
2019-04-23T13:58:05.097Z,1839.38
2019-04-23T13:58:50.341Z,1951.88
2019-04-23T13:59:47.095Z,2340.00
2019-04-23T14:01:42.989Z,2469.38
2019-04-23T14:04:01.012Z,1676.25
2019-04-23T14:04:50.802Z,1850.63
2019-04-23T14:05:41.513Z,1766.25
2019-04-23T14:06:47.086Z,2306.25
2019-04-23T14:07:48.487Z,2610.00
2019-04-23T14:10:47.614Z,2548.13
2019-04-23T14:11:58.580Z,2373.75
2019-04-23T14:13:03.705Z,1276.88
2019-04-23T14:13:49.718Z,1456.88
2019-04-23T14:14:47.829Z,1074.38
2019-04-23T14:18:08.855Z,1018.13
2019-04-23T14:19:45.670Z,922.50
2019-04-23T14:20:40.771Z,888.75
2019-04-23T14:21:39.213Z,849.38
2019-04-23T14:24:59.266Z,933.75
2019-04-23T14:25:59.980Z,1428.75
2019-04-23T14:26:41.131Z,1147.50
2019-04-23T14:27:51.367Z,1091.25
2019-04-23T14:28:59.596Z,1119.38
2019-04-23T14:29:50.333Z,1102.50
2019-04-23T14:30:59.231Z,1203.75
2019-04-23T14:31:43.215Z,2131.88
2019-04-23T14:32:49.897Z,1293.75
2019-04-23T14:34:54.142Z,1119.38
2019-04-23T14:35:46.177Z,1102.50
2019-04-23T14:36:42.858Z,1501.88
2019-04-23T14:38:07.415Z,1361.25
2019-04-23T14:38:43.807Z,1968.75
2019-04-23T14:39:47.594Z,1231.88
2019-04-23T14:41:43.734Z,1293.75
2019-04-23T14:43:58.412Z,2300.63
2019-04-23T14:44:47.168Z,2266.88
2019-04-23T14:46:04.825Z,2435.63
2019-04-23T14:46:54.857Z,2497.50
2019-04-23T14:47:46.376Z,2486.25
2019-04-23T14:48:48.991Z,2424.38
2019-04-23T14:49:59.366Z,2334.38
2019-04-23T14:50:39.997Z,2250.00
2019-04-23T14:51:51.634Z,2199.38
2019-04-23T14:52:50.237Z,2115.00
2019-04-23T14:53:43.853Z,2086.88
2019-04-23T14:55:31.490Z,2137.50
2019-04-23T14:55:56.920Z,2086.88
2019-04-23T14:56:46.264Z,2008.13
2019-04-23T14:57:55.822Z,2041.88
2019-04-23T14:58:50.796Z,1957.50
2019-04-23T14:59:46.779Z,1951.88
2019-04-23T15:01:05.200Z,1951.88
2019-04-23T15:01:40.300Z,2019.38
2019-04-23T15:06:00.186Z,1890.00
2019-04-23T15:06:50.912Z,1743.75
2019-04-23T15:07:45.730Z,1743.75
2019-04-23T15:08:50.195Z,1783.13
2019-04-23T15:12:48.691Z,1777.50
2019-04-23T15:13:44.535Z,1631.25
2019-04-23T15:14:56.321Z,1541.25
2019-04-23T15:15:48.716Z,1288.13
2019-04-23T15:16:45.556Z,1209.38
2019-04-23T15:19:02.693Z,871.88
2019-04-23T15:21:01.256Z,776.25
2019-04-23T15:21:53.732Z,759.38
2019-04-23T15:25:15.248Z,849.38
2019-04-23T15:27:21.887Z,748.13
2019-04-23T15:27:47.418Z,1091.25
2019-04-23T15:28:20.198Z,849.38
2019-04-23T15:29:33.663Z,1018.13
2019-04-23T15:30:50.851Z,675.00
2019-04-23T15:31:48.888Z,646.88
2019-04-23T15:32:58.123Z,624.38
2019-04-23T15:33:58.986Z,646.88
2019-04-23T15:34:45.370Z,646.88
2019-04-23T15:35:57.883Z,652.50
2019-04-23T15:38:10.879Z,691.88
2019-04-23T15:38:54.297Z,720.00
2019-04-23T15:39:46.489Z,759.38
2019-04-23T15:40:41.774Z,1147.50
2019-04-23T15:41:55.893Z,1175.63
2019-04-23T15:42:53.828Z,1175.63
2019-04-23T15:43:52.086Z,1203.75
2019-04-23T15:44:48.757Z,1209.38